Aviation Digital Data Service (ADDS)

Output produced by METARs form (0259 UTC 18 August 2017)
found at http://www.aviationweather.gov/adds/metars/
 
LQBK 180230Z 18002KT CAVOK 16/14 Q1018 NOSIG
TAF LQBK 172300Z 1800/1824 VRB02KT CAVOK TX35/1814Z TN15/1804Z
       
LQMO 180230Z VRB02KT CAVOK 21/18 Q1015
TAF LQMO 172300Z 1800/1824 34005KT CAVOK TX38/1814Z TN20/1804Z 
     TEMPO 1812/1817 22010KT
       
LQSA 180200Z 12004KT CAVOK 15/13 Q1020
TAF LQSA 172300Z 1800/1824 03005KT CAVOK TX32/1814Z TN14/1804Z
       
LQTZ 172200Z VRB02KT CAVOK 17/15 Q1019
TAF LQTZ 171700Z 1718/1818 VRB02KT CAVOK TX32/1814Z TN14/1804Z